sensor_id;sensor_type;location;lat;lon;timestamp;temperature;humidity
9760;DHT22;4919;48.792;9.202;2022-09-09T00:01:27;13.80;99.90
9760;DHT22;4919;48.792;9.202;2022-09-09T00:04:03;13.70;99.90
9760;DHT22;4919;48.792;9.202;2022-09-09T00:06:35;13.70;99.90
9760;DHT22;4919;48.792;9.202;2022-09-09T00:09:12;13.70;99.90
9760;DHT22;4919;48.792;9.202;2022-09-09T00:11:43;13.70;99.90
9760;DHT22;4919;48.792;9.202;2022-09-09T00:16:56;13.90;99.90
9760;DHT22;4919;48.792;9.202;2022-09-09T00:19:41;13.80;99.90
9760;DHT22;4919;48.792;9.202;2022-09-09T00:22:14;13.80;99.90
9760;DHT22;4919;48.792;9.202;2022-09-09T00:24:49;13.80;99.90
9760;DHT22;4919;48.792;9.202;2022-09-09T00:27:39;13.80;99.90
9760;DHT22;4919;48.792;9.202;2022-09-09T00:30:20;13.70;99.90
9760;DHT22;4919;48.792;9.202;2022-09-09T00:32:53;13.70;99.90
9760;DHT22;4919;48.792;9.202;2022-09-09T00:35:48;13.70;99.90
9760;DHT22;4919;48.792;9.202;2022-09-09T00:41:09;13.80;99.90
9760;DHT22;4919;48.792;9.202;2022-09-09T00:43:39;13.80;99.90
9760;DHT22;4919;48.792;9.202;2022-09-09T00:49:13;13.70;99.90
9760;DHT22;4919;48.792;9.202;2022-09-09T00:57:34;13.60;99.90
9760;DHT22;4919;48.792;9.202;2022-09-09T01:03:06;13.60;99.90
9760;DHT22;4919;48.792;9.202;2022-09-09T01:05:46;13.50;99.90
9760;DHT22;4919;48.792;9.202;2022-09-09T01:11:13;13.50;99.90
9760;DHT22;4919;48.792;9.202;2022-09-09T01:13:45;13.50;99.90
9760;DHT22;4919;48.792;9.202;2022-09-09T01:16:14;13.50;99.90
9760;DHT22;4919;48.792;9.202;2022-09-09T01:18:45;13.40;99.90
9760;DHT22;4919;48.792;9.202;2022-09-09T01:27:09;13.40;99.90
9760;DHT22;4919;48.792;9.202;2022-09-09T01:29:37;13.40;99.90
9760;DHT22;4919;48.792;9.202;2022-09-09T01:32:42;13.30;99.90
9760;DHT22;4919;48.792;9.202;2022-09-09T01:36:02;13.20;99.90
9760;DHT22;4919;48.792;9.202;2022-09-09T01:38:03;13.30;99.90
9760;DHT22;4919;48.792;9.202;2022-09-09T01:40:30;13.30;99.90
9760;DHT22;4919;48.792;9.202;2022-09-09T01:42:57;13.30;99.90
9760;DHT22;4919;48.792;9.202;2022-09-09T01:45:24;13.20;99.90
9760;DHT22;4919;48.792;9.202;2022-09-09T01:47:54;13.20;99.90
9760;DHT22;4919;48.792;9.202;2022-09-09T01:50:38;13.20;99.90
9760;DHT22;4919;48.792;9.202;2022-09-09T01:53:05;13.20;99.90
9760;DHT22;4919;48.792;9.202;2022-09-09T01:55:37;13.10;99.90
9760;DHT22;4919;48.792;9.202;2022-09-09T02:01:32;13.20;99.90
9760;DHT22;4919;48.792;9.202;2022-09-09T02:04:11;13.10;99.90
9760;DHT22;4919;48.792;9.202;2022-09-09T02:06:44;13.10;99.90
9760;DHT22;4919;48.792;9.202;2022-09-09T02:09:24;13.10;99.90
9760;DHT22;4919;48.792;9.202;2022-09-09T02:12:02;13.00;99.90
9760;DHT22;4919;48.792;9.202;2022-09-09T02:14:42;13.10;99.90
9760;DHT22;4919;48.792;9.202;2022-09-09T02:17:16;13.00;99.90
9760;DHT22;4919;48.792;9.202;2022-09-09T02:20:13;13.00;99.90
9760;DHT22;4919;48.792;9.202;2022-09-09T02:22:49;13.20;99.90
9760;DHT22;4919;48.792;9.202;2022-09-09T02:25:22;13.10;99.90
9760;DHT22;4919;48.792;9.202;2022-09-09T02:27:51;13.20;99.90
9760;DHT22;4919;48.792;9.202;2022-09-09T02:30:19;13.10;99.90
9760;DHT22;4919;48.792;9.202;2022-09-09T02:32:54;13.10;99.90
9760;DHT22;4919;48.792;9.202;2022-09-09T02:35:34;13.10;99.90
9760;DHT22;4919;48.792;9.202;2022-09-09T02:38:08;13.00;99.90
9760;DHT22;4919;48.792;9.202;2022-09-09T02:40:37;13.10;99.90
9760;DHT22;4919;48.792;9.202;2022-09-09T02:43:04;13.00;99.90
9760;DHT22;4919;48.792;9.202;2022-09-09T02:51:26;13.00;99.90
9760;DHT22;4919;48.792;9.202;2022-09-09T02:54:27;12.90;99.90
9760;DHT22;4919;48.792;9.202;2022-09-09T02:57:08;12.80;99.90
9760;DHT22;4919;48.792;9.202;2022-09-09T02:59:38;12.90;99.90
9760;DHT22;4919;48.792;9.202;2022-09-09T03:02:05;12.90;99.90
9760;DHT22;4919;48.792;9.202;2022-09-09T03:04:33;12.90;99.90
9760;DHT22;4919;48.792;9.202;2022-09-09T03:07:00;12.90;99.90
9760;DHT22;4919;48.792;9.202;2022-09-09T03:09:26;13.00;99.90
9760;DHT22;4919;48.792;9.202;2022-09-09T03:11:54;13.10;99.90
9760;DHT22;4919;48.792;9.202;2022-09-09T03:14:22;13.00;99.90
9760;DHT22;4919;48.792;9.202;2022-09-09T03:16:53;13.00;99.90
9760;DHT22;4919;48.792;9.202;2022-09-09T03:19:20;13.00;99.90
9760;DHT22;4919;48.792;9.202;2022-09-09T03:21:48;13.00;99.90
9760;DHT22;4919;48.792;9.202;2022-09-09T03:24:15;13.10;99.90
9760;DHT22;4919;48.792;9.202;2022-09-09T03:26:42;13.00;99.90
9760;DHT22;4919;48.792;9.202;2022-09-09T03:29:15;13.00;99.90
9760;DHT22;4919;48.792;9.202;2022-09-09T03:31:44;13.00;99.90
9760;DHT22;4919;48.792;9.202;2022-09-09T03:34:11;12.90;99.90
9760;DHT22;4919;48.792;9.202;2022-09-09T03:36:38;12.90;99.90
9760;DHT22;4919;48.792;9.202;2022-09-09T03:39:05;12.90;99.90
9760;DHT22;4919;48.792;9.202;2022-09-09T03:41:31;12.90;99.90
9760;DHT22;4919;48.792;9.202;2022-09-09T03:44:00;12.90;99.90
9760;DHT22;4919;48.792;9.202;2022-09-09T03:46:31;12.90;99.90
9760;DHT22;4919;48.792;9.202;2022-09-09T03:48:59;12.80;99.90
9760;DHT22;4919;48.792;9.202;2022-09-09T03:51:26;12.80;99.90
9760;DHT22;4919;48.792;9.202;2022-09-09T03:53:53;12.80;99.90
9760;DHT22;4919;48.792;9.202;2022-09-09T03:56:22;12.80;99.90
9760;DHT22;4919;48.792;9.202;2022-09-09T03:58:49;12.80;99.90
9760;DHT22;4919;48.792;9.202;2022-09-09T04:01:16;12.80;99.90
9760;DHT22;4919;48.792;9.202;2022-09-09T04:03:45;12.70;99.90
9760;DHT22;4919;48.792;9.202;2022-09-09T04:06:12;12.70;99.90
9760;DHT22;4919;48.792;9.202;2022-09-09T04:08:44;12.70;99.90
9760;DHT22;4919;48.792;9.202;2022-09-09T04:11:13;12.70;99.90
9760;DHT22;4919;48.792;9.202;2022-09-09T04:13:42;12.70;99.90
9760;DHT22;4919;48.792;9.202;2022-09-09T04:16:12;12.70;99.90
9760;DHT22;4919;48.792;9.202;2022-09-09T04:18:43;12.70;99.90
9760;DHT22;4919;48.792;9.202;2022-09-09T04:21:10;12.70;99.90
9760;DHT22;4919;48.792;9.202;2022-09-09T04:23:39;12.60;99.90
9760;DHT22;4919;48.792;9.202;2022-09-09T04:26:06;12.60;99.90
9760;DHT22;4919;48.792;9.202;2022-09-09T04:28:35;12.60;99.90
9760;DHT22;4919;48.792;9.202;2022-09-09T04:31:21;12.60;99.90
9760;DHT22;4919;48.792;9.202;2022-09-09T04:33:53;12.60;99.90
9760;DHT22;4919;48.792;9.202;2022-09-09T04:36:21;12.60;99.90
9760;DHT22;4919;48.792;9.202;2022-09-09T04:38:50;12.70;99.90
9760;DHT22;4919;48.792;9.202;2022-09-09T04:41:17;12.70;99.90
9760;DHT22;4919;48.792;9.202;2022-09-09T04:43:47;12.60;99.90
9760;DHT22;4919;48.792;9.202;2022-09-09T04:46:15;12.60;99.90
9760;DHT22;4919;48.792;9.202;2022-09-09T04:48:43;12.70;99.90
9760;DHT22;4919;48.792;9.202;2022-09-09T04:51:13;12.80;99.90
9760;DHT22;4919;48.792;9.202;2022-09-09T04:53:40;12.70;99.90
9760;DHT22;4919;48.792;9.202;2022-09-09T04:56:13;12.70;99.90
9760;DHT22;4919;48.792;9.202;2022-09-09T04:58:44;12.80;99.90
9760;DHT22;4919;48.792;9.202;2022-09-09T05:01:18;12.80;99.90
9760;DHT22;4919;48.792;9.202;2022-09-09T05:03:48;12.80;99.90
9760;DHT22;4919;48.792;9.202;2022-09-09T05:06:19;12.90;99.90
9760;DHT22;4919;48.792;9.202;2022-09-09T05:08:49;12.90;99.90
9760;DHT22;4919;48.792;9.202;2022-09-09T05:11:24;12.90;99.90
9760;DHT22;4919;48.792;9.202;2022-09-09T05:13:55;13.00;99.90
9760;DHT22;4919;48.792;9.202;2022-09-09T05:16:23;13.00;99.90
9760;DHT22;4919;48.792;9.202;2022-09-09T05:18:50;13.10;99.90
9760;DHT22;4919;48.792;9.202;2022-09-09T05:21:20;13.10;99.90
9760;DHT22;4919;48.792;9.202;2022-09-09T05:23:47;13.10;99.90
9760;DHT22;4919;48.792;9.202;2022-09-09T05:26:16;13.10;99.90
9760;DHT22;4919;48.792;9.202;2022-09-09T05:28:47;13.30;99.90
9760;DHT22;4919;48.792;9.202;2022-09-09T05:31:16;13.40;99.90
9760;DHT22;4919;48.792;9.202;2022-09-09T05:33:45;13.50;99.90
9760;DHT22;4919;48.792;9.202;2022-09-09T05:36:16;13.60;99.90
9760;DHT22;4919;48.792;9.202;2022-09-09T05:38:45;14.00;99.90
9760;DHT22;4919;48.792;9.202;2022-09-09T05:41:13;14.40;99.90
9760;DHT22;4919;48.792;9.202;2022-09-09T05:43:44;14.40;99.90
9760;DHT22;4919;48.792;9.202;2022-09-09T05:46:14;14.80;99.90
9760;DHT22;4919;48.792;9.202;2022-09-09T05:48:43;15.20;99.90
9760;DHT22;4919;48.792;9.202;2022-09-09T05:51:12;15.60;99.90
9760;DHT22;4919;48.792;9.202;2022-09-09T05:53:39;15.10;99.90
9760;DHT22;4919;48.792;9.202;2022-09-09T05:56:08;15.00;99.90
9760;DHT22;4919;48.792;9.202;2022-09-09T05:58:38;14.80;99.90
9760;DHT22;4919;48.792;9.202;2022-09-09T06:01:13;14.70;99.90
9760;DHT22;4919;48.792;9.202;2022-09-09T06:03:42;14.70;99.90
9760;DHT22;4919;48.792;9.202;2022-09-09T06:06:17;14.70;99.90
9760;DHT22;4919;48.792;9.202;2022-09-09T06:08:44;14.60;99.90
9760;DHT22;4919;48.792;9.202;2022-09-09T06:11:17;14.60;99.90
9760;DHT22;4919;48.792;9.202;2022-09-09T06:13:44;14.60;99.90
9760;DHT22;4919;48.792;9.202;2022-09-09T06:16:14;14.60;99.90
9760;DHT22;4919;48.792;9.202;2022-09-09T06:18:42;14.60;99.90
9760;DHT22;4919;48.792;9.202;2022-09-09T06:21:18;14.60;99.90
9760;DHT22;4919;48.792;9.202;2022-09-09T06:23:47;14.60;99.90
9760;DHT22;4919;48.792;9.202;2022-09-09T06:26:25;14.70;99.90
9760;DHT22;4919;48.792;9.202;2022-09-09T06:28:54;14.80;99.90
9760;DHT22;4919;48.792;9.202;2022-09-09T06:31:23;14.80;99.90
9760;DHT22;4919;48.792;9.202;2022-09-09T06:33:58;14.90;99.90
9760;DHT22;4919;48.792;9.202;2022-09-09T06:38:53;14.90;99.90
9760;DHT22;4919;48.792;9.202;2022-09-09T06:41:22;14.90;99.90
9760;DHT22;4919;48.792;9.202;2022-09-09T06:43:49;15.00;99.90
9760;DHT22;4919;48.792;9.202;2022-09-09T06:46:21;15.00;99.90
9760;DHT22;4919;48.792;9.202;2022-09-09T06:48:49;15.10;99.90
9760;DHT22;4919;48.792;9.202;2022-09-09T06:51:19;15.10;99.90
9760;DHT22;4919;48.792;9.202;2022-09-09T06:53:51;15.00;99.90
9760;DHT22;4919;48.792;9.202;2022-09-09T06:56:30;15.10;99.90
9760;DHT22;4919;48.792;9.202;2022-09-09T06:59:00;15.10;99.90
9760;DHT22;4919;48.792;9.202;2022-09-09T07:01:36;15.10;99.90
9760;DHT22;4919;48.792;9.202;2022-09-09T07:04:08;15.20;99.90
9760;DHT22;4919;48.792;9.202;2022-09-09T07:06:46;15.20;99.90
9760;DHT22;4919;48.792;9.202;2022-09-09T07:09:20;15.20;99.90
9760;DHT22;4919;48.792;9.202;2022-09-09T07:11:50;15.20;99.90
9760;DHT22;4919;48.792;9.202;2022-09-09T07:14:22;15.30;99.90
9760;DHT22;4919;48.792;9.202;2022-09-09T07:16:56;15.30;99.90
9760;DHT22;4919;48.792;9.202;2022-09-09T07:19:26;15.20;99.90
9760;DHT22;4919;48.792;9.202;2022-09-09T07:21:54;15.30;99.90
9760;DHT22;4919;48.792;9.202;2022-09-09T07:24:23;15.40;99.90
9760;DHT22;4919;48.792;9.202;2022-09-09T07:26:50;15.60;99.90
9760;DHT22;4919;48.792;9.202;2022-09-09T07:29:18;15.70;99.90
9760;DHT22;4919;48.792;9.202;2022-09-09T07:31:47;15.70;99.90
9760;DHT22;4919;48.792;9.202;2022-09-09T07:34:19;15.70;99.90
9760;DHT22;4919;48.792;9.202;2022-09-09T07:36:47;15.80;99.90
9760;DHT22;4919;48.792;9.202;2022-09-09T07:39:15;15.90;99.90
9760;DHT22;4919;48.792;9.202;2022-09-09T07:41:49;16.00;99.90
9760;DHT22;4919;48.792;9.202;2022-09-09T07:44:21;16.30;99.90
9760;DHT22;4919;48.792;9.202;2022-09-09T07:46:53;16.30;99.90
9760;DHT22;4919;48.792;9.202;2022-09-09T07:49:25;16.40;99.90
9760;DHT22;4919;48.792;9.202;2022-09-09T07:51:59;16.40;99.90
9760;DHT22;4919;48.792;9.202;2022-09-09T07:54:26;16.40;99.90
9760;DHT22;4919;48.792;9.202;2022-09-09T07:56:54;16.40;99.90
9760;DHT22;4919;48.792;9.202;2022-09-09T07:59:24;16.50;99.90
9760;DHT22;4919;48.792;9.202;2022-09-09T08:01:53;16.60;99.90
9760;DHT22;4919;48.792;9.202;2022-09-09T08:04:25;16.60;99.90
9760;DHT22;4919;48.792;9.202;2022-09-09T08:06:56;16.80;99.90
9760;DHT22;4919;48.792;9.202;2022-09-09T08:09:26;16.90;99.90
9760;DHT22;4919;48.792;9.202;2022-09-09T08:12:16;17.00;99.90
9760;DHT22;4919;48.792;9.202;2022-09-09T08:14:43;17.00;99.90
9760;DHT22;4919;48.792;9.202;2022-09-09T08:17:10;17.20;99.90
9760;DHT22;4919;48.792;9.202;2022-09-09T08:19:37;17.20;99.90
9760;DHT22;4919;48.792;9.202;2022-09-09T08:22:10;17.40;99.90
9760;DHT22;4919;48.792;9.202;2022-09-09T08:24:39;17.50;99.90
9760;DHT22;4919;48.792;9.202;2022-09-09T08:27:06;17.60;99.90
9760;DHT22;4919;48.792;9.202;2022-09-09T08:29:33;17.60;99.90
9760;DHT22;4919;48.792;9.202;2022-09-09T08:32:01;17.40;99.90
9760;DHT22;4919;48.792;9.202;2022-09-09T08:34:28;17.20;99.90
9760;DHT22;4919;48.792;9.202;2022-09-09T08:36:59;17.10;99.90
9760;DHT22;4919;48.792;9.202;2022-09-09T08:39:34;17.00;99.90
9760;DHT22;4919;48.792;9.202;2022-09-09T08:50:56;17.20;99.90
9760;DHT22;4919;48.792;9.202;2022-09-09T08:53:23;17.30;99.90
9760;DHT22;4919;48.792;9.202;2022-09-09T08:58:35;17.50;99.90
9760;DHT22;4919;48.792;9.202;2022-09-09T09:04:21;17.90;99.90
9760;DHT22;4919;48.792;9.202;2022-09-09T09:12:11;18.40;99.90
9760;DHT22;4919;48.792;9.202;2022-09-09T09:14:44;18.70;99.90
9760;DHT22;4919;48.792;9.202;2022-09-09T09:17:15;19.10;99.90
9760;DHT22;4919;48.792;9.202;2022-09-09T09:19:43;19.40;99.90
9760;DHT22;4919;48.792;9.202;2022-09-09T09:27:14;19.30;99.90
9760;DHT22;4919;48.792;9.202;2022-09-09T09:29:49;19.80;99.90
9760;DHT22;4919;48.792;9.202;2022-09-09T09:32:39;19.80;99.90
9760;DHT22;4919;48.792;9.202;2022-09-09T09:35:12;19.90;99.90
9760;DHT22;4919;48.792;9.202;2022-09-09T09:37:41;20.40;99.90
9760;DHT22;4919;48.792;9.202;2022-09-09T09:40:31;20.40;99.90
9760;DHT22;4919;48.792;9.202;2022-09-09T09:43:00;20.50;99.90
9760;DHT22;4919;48.792;9.202;2022-09-09T09:45:33;20.30;99.90
9760;DHT22;4919;48.792;9.202;2022-09-09T09:48:04;20.60;99.90
9760;DHT22;4919;48.792;9.202;2022-09-09T09:50:35;20.60;99.90
9760;DHT22;4919;48.792;9.202;2022-09-09T09:53:27;20.70;99.90
9760;DHT22;4919;48.792;9.202;2022-09-09T09:55:57;21.00;99.90
9760;DHT22;4919;48.792;9.202;2022-09-09T09:58:26;21.20;99.90
9760;DHT22;4919;48.792;9.202;2022-09-09T10:00:54;21.40;99.90
9760;DHT22;4919;48.792;9.202;2022-09-09T10:03:33;21.30;99.90
9760;DHT22;4919;48.792;9.202;2022-09-09T10:06:05;21.60;99.90
9760;DHT22;4919;48.792;9.202;2022-09-09T10:08:43;22.10;99.90
9760;DHT22;4919;48.792;9.202;2022-09-09T10:17:04;21.60;99.90
9760;DHT22;4919;48.792;9.202;2022-09-09T10:19:35;21.30;99.90
9760;DHT22;4919;48.792;9.202;2022-09-09T10:30:21;21.10;99.90
9760;DHT22;4919;48.792;9.202;2022-09-09T10:35:35;21.40;99.90
9760;DHT22;4919;48.792;9.202;2022-09-09T10:38:16;21.30;99.90
9760;DHT22;4919;48.792;9.202;2022-09-09T10:46:21;20.60;99.90
9760;DHT22;4919;48.792;9.202;2022-09-09T10:54:46;22.10;99.90
9760;DHT22;4919;48.792;9.202;2022-09-09T10:57:41;22.60;99.90
9760;DHT22;4919;48.792;9.202;2022-09-09T11:00:20;22.80;99.90
9760;DHT22;4919;48.792;9.202;2022-09-09T11:02:56;22.80;99.90
9760;DHT22;4919;48.792;9.202;2022-09-09T11:08:01;22.40;99.90
9760;DHT22;4919;48.792;9.202;2022-09-09T11:10:40;22.10;99.90
9760;DHT22;4919;48.792;9.202;2022-09-09T11:16:04;22.60;99.90
9760;DHT22;4919;48.792;9.202;2022-09-09T11:18:36;22.90;99.90
9760;DHT22;4919;48.792;9.202;2022-09-09T11:21:10;22.20;99.90
9760;DHT22;4919;48.792;9.202;2022-09-09T11:23:44;22.30;99.90
9760;DHT22;4919;48.792;9.202;2022-09-09T11:26:19;22.80;99.90
9760;DHT22;4919;48.792;9.202;2022-09-09T11:31:53;22.00;99.90
9760;DHT22;4919;48.792;9.202;2022-09-09T11:34:39;21.70;99.90
9760;DHT22;4919;48.792;9.202;2022-09-09T11:40:28;22.30;99.90
9760;DHT22;4919;48.792;9.202;2022-09-09T11:43:15;21.70;99.90
9760;DHT22;4919;48.792;9.202;2022-09-09T11:45:51;21.40;99.90
9760;DHT22;4919;48.792;9.202;2022-09-09T11:48:32;21.40;99.90
9760;DHT22;4919;48.792;9.202;2022-09-09T11:51:12;21.60;99.90
9760;DHT22;4919;48.792;9.202;2022-09-09T11:54:33;22.00;99.90
9760;DHT22;4919;48.792;9.202;2022-09-09T11:56:44;22.00;99.90
9760;DHT22;4919;48.792;9.202;2022-09-09T11:59:27;22.10;99.90
9760;DHT22;4919;48.792;9.202;2022-09-09T12:04:48;22.40;99.90
9760;DHT22;4919;48.792;9.202;2022-09-09T12:07:36;22.60;99.90
9760;DHT22;4919;48.792;9.202;2022-09-09T12:10:26;22.60;99.90
9760;DHT22;4919;48.792;9.202;2022-09-09T12:12:53;22.80;99.90
9760;DHT22;4919;48.792;9.202;2022-09-09T12:15:27;22.70;99.90
9760;DHT22;4919;48.792;9.202;2022-09-09T12:17:57;22.50;99.90
9760;DHT22;4919;48.792;9.202;2022-09-09T12:20:36;22.50;99.90
9760;DHT22;4919;48.792;9.202;2022-09-09T12:33:48;21.80;99.90
9760;DHT22;4919;48.792;9.202;2022-09-09T12:36:25;21.90;99.90
9760;DHT22;4919;48.792;9.202;2022-09-09T12:38:55;22.10;99.90
9760;DHT22;4919;48.792;9.202;2022-09-09T12:41:27;22.10;99.90
9760;DHT22;4919;48.792;9.202;2022-09-09T12:44:10;22.00;99.90
9760;DHT22;4919;48.792;9.202;2022-09-09T12:46:40;22.10;99.90
9760;DHT22;4919;48.792;9.202;2022-09-09T12:49:44;22.20;99.90
9760;DHT22;4919;48.792;9.202;2022-09-09T12:54:48;21.80;99.90
9760;DHT22;4919;48.792;9.202;2022-09-09T12:57:17;22.00;99.90
9760;DHT22;4919;48.792;9.202;2022-09-09T12:59:44;21.90;99.90
9760;DHT22;4919;48.792;9.202;2022-09-09T13:02:25;21.90;99.90
9760;DHT22;4919;48.792;9.202;2022-09-09T13:04:54;22.00;99.90
9760;DHT22;4919;48.792;9.202;2022-09-09T13:07:21;22.20;99.90
9760;DHT22;4919;48.792;9.202;2022-09-09T13:09:49;22.40;99.90
9760;DHT22;4919;48.792;9.202;2022-09-09T13:12:21;22.20;99.90
9760;DHT22;4919;48.792;9.202;2022-09-09T13:14:54;22.20;99.90
9760;DHT22;4919;48.792;9.202;2022-09-09T13:17:27;22.20;99.90
9760;DHT22;4919;48.792;9.202;2022-09-09T13:19:57;22.30;99.90
9760;DHT22;4919;48.792;9.202;2022-09-09T13:22:37;22.10;99.90
9760;DHT22;4919;48.792;9.202;2022-09-09T13:27:40;22.10;99.90
9760;DHT22;4919;48.792;9.202;2022-09-09T13:30:37;22.20;99.90
9760;DHT22;4919;48.792;9.202;2022-09-09T13:38:16;21.90;99.90
9760;DHT22;4919;48.792;9.202;2022-09-09T13:41:01;21.70;99.90
9760;DHT22;4919;48.792;9.202;2022-09-09T13:43:42;21.60;99.90
9760;DHT22;4919;48.792;9.202;2022-09-09T13:46:38;21.60;99.90
9760;DHT22;4919;48.792;9.202;2022-09-09T13:51:46;21.20;99.90
9760;DHT22;4919;48.792;9.202;2022-09-09T13:54:15;21.30;99.90
9760;DHT22;4919;48.792;9.202;2022-09-09T13:56:43;21.20;99.90
9760;DHT22;4919;48.792;9.202;2022-09-09T13:59:12;21.10;99.90
9760;DHT22;4919;48.792;9.202;2022-09-09T14:01:39;21.00;99.90
9760;DHT22;4919;48.792;9.202;2022-09-09T14:04:07;20.90;99.90
9760;DHT22;4919;48.792;9.202;2022-09-09T14:06:38;20.60;99.90
9760;DHT22;4919;48.792;9.202;2022-09-09T14:09:07;20.20;99.90
9760;DHT22;4919;48.792;9.202;2022-09-09T14:11:34;20.00;99.90
9760;DHT22;4919;48.792;9.202;2022-09-09T14:14:01;19.70;99.90
9760;DHT22;4919;48.792;9.202;2022-09-09T14:16:28;19.60;99.90
9760;DHT22;4919;48.792;9.202;2022-09-09T14:18:55;19.50;99.90
9760;DHT22;4919;48.792;9.202;2022-09-09T14:21:23;19.50;99.90
9760;DHT22;4919;48.792;9.202;2022-09-09T14:23:51;19.50;99.90
9760;DHT22;4919;48.792;9.202;2022-09-09T14:26:20;19.50;99.90
9760;DHT22;4919;48.792;9.202;2022-09-09T14:28:48;19.50;99.90
9760;DHT22;4919;48.792;9.202;2022-09-09T14:31:22;19.50;99.90
9760;DHT22;4919;48.792;9.202;2022-09-09T14:33:49;19.50;99.90
9760;DHT22;4919;48.792;9.202;2022-09-09T14:36:17;19.40;99.90
9760;DHT22;4919;48.792;9.202;2022-09-09T14:38:44;19.40;99.90
9760;DHT22;4919;48.792;9.202;2022-09-09T14:41:12;19.50;99.90
9760;DHT22;4919;48.792;9.202;2022-09-09T14:43:40;19.40;99.90
9760;DHT22;4919;48.792;9.202;2022-09-09T14:46:08;19.40;99.90
9760;DHT22;4919;48.792;9.202;2022-09-09T14:48:35;19.30;99.90
9760;DHT22;4919;48.792;9.202;2022-09-09T14:53:37;19.30;99.90
9760;DHT22;4919;48.792;9.202;2022-09-09T14:56:15;19.30;99.90
9760;DHT22;4919;48.792;9.202;2022-09-09T14:58:42;19.20;99.90
9760;DHT22;4919;48.792;9.202;2022-09-09T15:01:12;19.10;99.90
9760;DHT22;4919;48.792;9.202;2022-09-09T15:03:41;19.40;99.90
9760;DHT22;4919;48.792;9.202;2022-09-09T15:06:10;19.40;99.90
9760;DHT22;4919;48.792;9.202;2022-09-09T15:08:39;19.30;99.90
9760;DHT22;4919;48.792;9.202;2022-09-09T15:11:10;19.40;99.90
9760;DHT22;4919;48.792;9.202;2022-09-09T15:13:38;19.40;99.90
9760;DHT22;4919;48.792;9.202;2022-09-09T15:16:12;19.50;99.90
9760;DHT22;4919;48.792;9.202;2022-09-09T15:18:39;19.60;99.90
9760;DHT22;4919;48.792;9.202;2022-09-09T15:21:10;19.90;99.90
9760;DHT22;4919;48.792;9.202;2022-09-09T15:23:38;20.00;99.90
9760;DHT22;4919;48.792;9.202;2022-09-09T15:26:05;20.00;99.90
9760;DHT22;4919;48.792;9.202;2022-09-09T15:28:33;19.90;99.90
9760;DHT22;4919;48.792;9.202;2022-09-09T15:31:23;19.80;99.90
9760;DHT22;4919;48.792;9.202;2022-09-09T15:33:55;19.80;99.90
9760;DHT22;4919;48.792;9.202;2022-09-09T15:36:42;19.80;99.90
9760;DHT22;4919;48.792;9.202;2022-09-09T15:39:14;19.80;99.90
9760;DHT22;4919;48.792;9.202;2022-09-09T15:41:48;19.90;99.90
9760;DHT22;4919;48.792;9.202;2022-09-09T15:44:15;19.90;99.90
9760;DHT22;4919;48.792;9.202;2022-09-09T15:46:44;19.90;99.90
9760;DHT22;4919;48.792;9.202;2022-09-09T15:51:40;20.10;99.90
9760;DHT22;4919;48.792;9.202;2022-09-09T15:54:11;20.20;99.90
9760;DHT22;4919;48.792;9.202;2022-09-09T15:56:39;20.20;99.90
9760;DHT22;4919;48.792;9.202;2022-09-09T15:59:06;20.30;99.90
9760;DHT22;4919;48.792;9.202;2022-09-09T16:01:34;20.20;99.90
9760;DHT22;4919;48.792;9.202;2022-09-09T16:04:02;20.20;99.90
9760;DHT22;4919;48.792;9.202;2022-09-09T16:06:29;20.10;99.90
9760;DHT22;4919;48.792;9.202;2022-09-09T16:08:58;20.10;99.90
9760;DHT22;4919;48.792;9.202;2022-09-09T16:11:28;20.10;99.90
9760;DHT22;4919;48.792;9.202;2022-09-09T16:13:56;20.10;99.90
9760;DHT22;4919;48.792;9.202;2022-09-09T16:16:24;20.10;99.90
9760;DHT22;4919;48.792;9.202;2022-09-09T16:18:54;20.10;99.90
9760;DHT22;4919;48.792;9.202;2022-09-09T16:21:30;20.00;99.90
9760;DHT22;4919;48.792;9.202;2022-09-09T16:23:59;20.10;99.90
9760;DHT22;4919;48.792;9.202;2022-09-09T16:26:27;20.00;99.90
9760;DHT22;4919;48.792;9.202;2022-09-09T16:28:55;19.90;99.90
9760;DHT22;4919;48.792;9.202;2022-09-09T16:31:24;19.80;99.90
9760;DHT22;4919;48.792;9.202;2022-09-09T16:33:51;19.70;99.90
9760;DHT22;4919;48.792;9.202;2022-09-09T16:36:23;19.60;99.90
9760;DHT22;4919;48.792;9.202;2022-09-09T16:38:59;19.50;99.90
9760;DHT22;4919;48.792;9.202;2022-09-09T16:41:28;19.30;99.90
9760;DHT22;4919;48.792;9.202;2022-09-09T16:43:56;19.10;99.90
9760;DHT22;4919;48.792;9.202;2022-09-09T16:46:24;19.00;99.90
9760;DHT22;4919;48.792;9.202;2022-09-09T16:48:52;18.90;99.90
9760;DHT22;4919;48.792;9.202;2022-09-09T16:51:27;18.80;99.90
9760;DHT22;4919;48.792;9.202;2022-09-09T16:53:55;18.70;99.90
9760;DHT22;4919;48.792;9.202;2022-09-09T16:56:25;18.60;99.90
9760;DHT22;4919;48.792;9.202;2022-09-09T16:58:57;18.50;99.90
9760;DHT22;4919;48.792;9.202;2022-09-09T17:01:26;18.50;99.90
9760;DHT22;4919;48.792;9.202;2022-09-09T17:03:57;18.40;99.90
9760;DHT22;4919;48.792;9.202;2022-09-09T17:06:28;18.30;99.90
9760;DHT22;4919;48.792;9.202;2022-09-09T17:08:57;18.30;99.90
9760;DHT22;4919;48.792;9.202;2022-09-09T17:11:25;18.30;99.90
9760;DHT22;4919;48.792;9.202;2022-09-09T17:13:52;18.30;99.90
9760;DHT22;4919;48.792;9.202;2022-09-09T17:16:23;18.30;99.90
9760;DHT22;4919;48.792;9.202;2022-09-09T17:18:51;18.20;99.90
9760;DHT22;4919;48.792;9.202;2022-09-09T17:21:20;18.10;99.90
9760;DHT22;4919;48.792;9.202;2022-09-09T17:23:48;18.10;99.90
9760;DHT22;4919;48.792;9.202;2022-09-09T17:26:18;18.00;99.90
9760;DHT22;4919;48.792;9.202;2022-09-09T17:28:45;17.90;99.90
9760;DHT22;4919;48.792;9.202;2022-09-09T17:31:14;17.80;99.90
9760;DHT22;4919;48.792;9.202;2022-09-09T17:33:45;17.80;99.90
9760;DHT22;4919;48.792;9.202;2022-09-09T17:36:18;17.70;99.90
9760;DHT22;4919;48.792;9.202;2022-09-09T17:38:45;17.60;99.90
9760;DHT22;4919;48.792;9.202;2022-09-09T17:41:18;17.50;99.90
9760;DHT22;4919;48.792;9.202;2022-09-09T17:43:46;17.50;99.90
9760;DHT22;4919;48.792;9.202;2022-09-09T17:48:43;17.30;99.90
9760;DHT22;4919;48.792;9.202;2022-09-09T17:51:19;17.20;99.90
9760;DHT22;4919;48.792;9.202;2022-09-09T17:53:48;17.20;99.90
9760;DHT22;4919;48.792;9.202;2022-09-09T17:56:18;17.10;99.90
9760;DHT22;4919;48.792;9.202;2022-09-09T17:58:50;17.10;99.90
9760;DHT22;4919;48.792;9.202;2022-09-09T18:01:20;17.10;99.90
9760;DHT22;4919;48.792;9.202;2022-09-09T18:03:48;17.00;99.90
9760;DHT22;4919;48.792;9.202;2022-09-09T18:06:21;16.80;99.90
9760;DHT22;4919;48.792;9.202;2022-09-09T18:08:51;16.70;99.90
9760;DHT22;4919;48.792;9.202;2022-09-09T18:11:19;16.70;99.90
9760;DHT22;4919;48.792;9.202;2022-09-09T18:13:54;16.60;99.90
9760;DHT22;4919;48.792;9.202;2022-09-09T18:16:22;16.50;99.90
9760;DHT22;4919;48.792;9.202;2022-09-09T18:18:50;16.40;99.90
9760;DHT22;4919;48.792;9.202;2022-09-09T18:21:19;16.40;99.90
9760;DHT22;4919;48.792;9.202;2022-09-09T18:23:46;16.40;99.90
9760;DHT22;4919;48.792;9.202;2022-09-09T18:26:21;16.40;99.90
9760;DHT22;4919;48.792;9.202;2022-09-09T18:28:50;16.40;99.90
9760;DHT22;4919;48.792;9.202;2022-09-09T18:31:19;16.40;99.90
9760;DHT22;4919;48.792;9.202;2022-09-09T18:33:47;16.40;99.90
9760;DHT22;4919;48.792;9.202;2022-09-09T18:36:19;16.40;99.90
9760;DHT22;4919;48.792;9.202;2022-09-09T18:38:46;16.30;99.90
9760;DHT22;4919;48.792;9.202;2022-09-09T18:41:20;16.30;99.90
9760;DHT22;4919;48.792;9.202;2022-09-09T18:43:49;16.30;99.90
9760;DHT22;4919;48.792;9.202;2022-09-09T18:46:17;16.20;99.90
9760;DHT22;4919;48.792;9.202;2022-09-09T18:48:46;16.20;99.90